Time;durP1;ratioP1;P1;durP2;ratioP2;P2;SDS_P1;SDS_P2;PMS_P1;PMS_P2;Temp;Humidity;BMP_temperature;BMP_pressure;BME280_temperature;BME280_humidity;BME280_pressure;Samples;Min_cycle;Max_cycle;Signal;HPM_P1;HPM_P2
2021/12/14 00:01:49;;;;;;;9.10;6.40;;;8.70;99.90;;;;;;6216007;23;20263;-79
2021/12/14 00:04:19;;;;;;;7.20;6.50;;;8.70;99.90;;;;;;6215883;23;20163;-81
2021/12/14 00:06:51;;;;;;;7.07;6.40;;;8.80;99.90;;;;;;6215615;23;20163;-81
2021/12/14 00:09:25;;;;;;;8.53;7.20;;;8.80;99.90;;;;;;6215380;23;20167;-79
2021/12/14 00:12:08;;;;;;;9.13;7.70;;;8.70;99.90;;;;;;6214003;23;20680;-79
2021/12/14 00:17:25;;;;;;;8.20;7.40;;;8.70;99.90;;;;;;6215354;23;20237;-82
2021/12/14 00:19:58;;;;;;;8.80;8.00;;;8.80;99.90;;;;;;6215528;23;20167;-78
2021/12/14 00:22:34;;;;;;;8.07;7.37;;;8.80;99.90;;;;;;6214846;23;20186;-80
2021/12/14 00:25:01;;;;;;;9.03;8.10;;;8.80;99.90;;;;;;6215336;23;20166;-79
2021/12/14 00:27:29;;;;;;;9.43;8.10;;;8.80;99.90;;;;;;6215058;23;20538;-78
2021/12/14 00:29:58;;;;;;;9.03;8.13;;;8.80;99.90;;;;;;6214825;23;20178;-81
2021/12/14 00:32:28;;;;;;;10.32;9.43;;;8.90;99.90;;;;;;6215214;23;20398;-78
2021/12/14 00:34:58;;;;;;;9.63;8.63;;;9.10;99.90;;;;;;6215281;23;20170;-80
2021/12/14 00:37:30;;;;;;;11.50;8.30;;;9.10;99.90;;;;;;6214661;23;20515;-79
2021/12/14 00:40:00;;;;;;;9.93;8.93;;;9.10;99.90;;;;;;6215082;23;20496;-81
2021/12/14 00:42:28;;;;;;;9.50;8.37;;;8.90;99.90;;;;;;6215685;23;20313;-80
2021/12/14 00:44:56;;;;;;;9.47;8.60;;;9.00;99.90;;;;;;6216367;23;20170;-91
2021/12/14 00:47:29;;;;;;;10.03;8.97;;;9.00;99.90;;;;;;6217391;23;20169;-89
2021/12/14 00:49:57;;;;;;;10.23;9.20;;;8.90;99.90;;;;;;6216855;23;20903;-88
2021/12/14 00:52:31;;;;;;;10.50;9.40;;;8.90;99.90;;;;;;6216888;23;20174;-89
2021/12/14 00:54:58;;;;;;;10.70;9.60;;;8.80;99.90;;;;;;6217019;23;20163;-90
2021/12/14 00:57:31;;;;;;;12.67;10.03;;;8.80;99.90;;;;;;6216322;23;20281;-89
2021/12/14 01:00:01;;;;;;;11.37;9.77;;;8.90;99.90;;;;;;6216671;23;20241;-86
2021/12/14 01:02:37;;;;;;;11.73;9.73;;;8.90;99.90;;;;;;6217405;23;20167;-88
2021/12/14 01:05:09;;;;;;;16.93;10.70;;;8.90;99.90;;;;;;6217073;23;20241;-87
2021/12/14 01:07:52;;;;;;;14.40;10.80;;;8.90;99.90;;;;;;6216588;23;20167;-88
2021/12/14 01:10:25;;;;;;;11.63;10.43;;;8.90;99.90;;;;;;6216554;23;20463;-87
2021/12/14 01:13:03;;;;;;;11.47;10.37;;;8.70;99.90;;;;;;6216911;23;20269;-87
2021/12/14 01:15:51;;;;;;;12.23;10.10;;;8.70;99.90;;;;;;6216824;23;20177;-89
2021/12/14 01:18:34;;;;;;;11.23;9.93;;;8.90;99.90;;;;;;6216720;23;20205;-90
2021/12/14 01:21:13;;;;;;;15.63;10.90;;;8.80;99.90;;;;;;6216864;23;20195;-89
2021/12/14 01:23:45;;;;;;;13.20;10.67;;;8.80;99.90;;;;;;6216915;23;20491;-87
2021/12/14 01:26:20;;;;;;;11.27;10.07;;;8.80;99.90;;;;;;6217439;23;20242;-89
2021/12/14 01:28:47;;;;;;;13.00;11.50;;;8.80;99.90;;;;;;6216060;23;20253;-91
2021/12/14 01:31:23;;;;;;;12.70;11.33;;;8.80;99.90;;;;;;6215950;23;20587;-91
2021/12/14 01:33:55;;;;;;;14.80;10.67;;;8.80;99.90;;;;;;6215919;23;20167;-88
2021/12/14 01:36:30;;;;;;;14.30;11.27;;;8.80;99.90;;;;;;6216038;23;20167;-90
2021/12/14 01:39:22;;;;;;;13.83;11.43;;;8.80;99.90;;;;;;6216855;23;20166;-88
2021/12/14 01:42:08;;;;;;;13.57;11.43;;;8.70;99.90;;;;;;6216716;23;20213;-89
2021/12/14 01:44:38;;;;;;;13.10;11.70;;;8.70;99.90;;;;;;6216062;23;20178;-87
2021/12/14 01:47:10;;;;;;;17.70;15.23;;;8.70;99.90;;;;;;6216067;23;20383;-90
2021/12/14 01:49:48;;;;;;;18.53;13.17;;;8.80;99.90;;;;;;6216182;23;20166;-89
2021/12/14 01:52:24;;;;;;;14.90;12.50;;;8.90;99.90;;;;;;6216708;23;20245;-90
2021/12/14 01:54:56;;;;;;;14.53;12.93;;;8.70;99.90;;;;;;6215464;23;20616;-80
2021/12/14 01:57:25;;;;;;;15.10;13.13;;;8.70;99.90;;;;;;6214910;23;20201;-82
2021/12/14 01:59:55;;;;;;;15.83;12.70;;;8.70;99.90;;;;;;6214789;23;20186;-79
2021/12/14 02:02:31;;;;;;;17.60;13.00;;;8.60;99.90;;;;;;6214547;23;20630;-80
2021/12/14 02:05:01;;;;;;;14.57;12.60;;;8.60;99.90;;;;;;6214601;23;20169;-80
2021/12/14 02:07:28;;;;;;;16.30;14.20;;;8.60;99.90;;;;;;6214277;23;20170;-81
2021/12/14 02:09:59;;;;;;;15.17;12.17;;;8.60;99.90;;;;;;6216511;23;20173;-79
2021/12/14 02:12:29;;;;;;;17.13;13.23;;;8.60;99.90;;;;;;6216487;23;20518;-80
2021/12/14 02:15:06;;;;;;;14.20;12.33;;;8.60;99.90;;;;;;6216391;23;20205;-80
2021/12/14 02:17:32;;;;;;;15.67;12.83;;;8.50;99.90;;;;;;6216550;23;20190;-81
2021/12/14 02:20:00;;;;;;;15.53;13.23;;;8.60;99.90;;;;;;6216094;23;20167;-80
2021/12/14 02:22:28;;;;;;;15.87;13.40;;;8.60;99.90;;;;;;6216459;23;20201;-82
2021/12/14 02:24:55;;;;;;;18.73;16.83;;;8.60;99.90;;;;;;6215016;23;20458;-79
2021/12/14 02:27:22;;;;;;;16.00;14.30;;;8.80;99.90;;;;;;6216473;23;20187;-79
2021/12/14 02:29:51;;;;;;;17.97;14.60;;;8.70;99.90;;;;;;6216969;23;20163;-79
2021/12/14 02:32:21;;;;;;;15.70;12.70;;;8.80;99.90;;;;;;6216006;23;20222;-81
2021/12/14 02:34:52;;;;;;;17.10;14.43;;;8.70;99.90;;;;;;6215837;23;20167;-83
2021/12/14 02:37:33;;;;;;;15.47;13.70;;;8.60;99.90;;;;;;6216264;23;20547;-79
2021/12/14 02:40:14;;;;;;;17.83;15.17;;;8.60;99.90;;;;;;6216257;23;20167;-79
2021/12/14 02:42:41;;;;;;;18.47;14.63;;;8.70;99.90;;;;;;6216853;23;20185;-80
2021/12/14 02:45:09;;;;;;;19.27;15.00;;;8.70;99.90;;;;;;6216254;23;20174;-80
2021/12/14 02:47:36;;;;;;;16.97;14.23;;;8.60;99.90;;;;;;6216484;23;20177;-83
2021/12/14 02:50:05;;;;;;;17.97;14.30;;;8.60;99.90;;;;;;6216378;23;20167;-80
2021/12/14 02:52:35;;;;;;;16.27;14.07;;;8.50;99.90;;;;;;6216377;23;20173;-82
2021/12/14 02:55:11;;;;;;;16.90;13.53;;;8.50;99.90;;;;;;6215754;23;20229;-81
2021/12/14 02:57:41;;;;;;;16.40;13.93;;;8.40;99.90;;;;;;6216078;23;20700;-81
2021/12/14 03:00:13;;;;;;;16.47;13.90;;;8.40;99.90;;;;;;6216070;23;20530;-80
2021/12/14 03:02:41;;;;;;;19.05;17.15;;;8.40;99.90;;;;;;6215405;23;20387;-80
2021/12/14 03:05:15;;;;;;;16.47;14.63;;;8.60;99.90;;;;;;6216280;23;20459;-82
2021/12/14 03:07:47;;;;;;;17.13;13.47;;;8.50;99.90;;;;;;6216384;23;20175;-80
2021/12/14 03:10:21;;;;;;;16.60;13.87;;;8.60;99.90;;;;;;6216631;23;20167;-80
2021/12/14 03:12:53;;;;;;;16.43;14.23;;;8.50;99.90;;;;;;6216910;23;20194;-80
2021/12/14 03:15:23;;;;;;;17.33;13.70;;;8.50;99.90;;;;;;6216850;23;20174;-79
2021/12/14 03:17:52;;;;;;;18.23;14.90;;;8.50;99.90;;;;;;6216151;23;20194;-81
2021/12/14 03:20:23;;;;;;;18.93;14.43;;;8.60;99.90;;;;;;6217009;23;20163;-87
2021/12/14 03:22:58;;;;;;;24.27;14.37;;;8.50;99.90;;;;;;6216571;23;20182;-83
2021/12/14 03:25:29;;;;;;;14.63;13.13;;;8.40;99.90;;;;;;6216956;23;20166;-88
2021/12/14 03:28:00;;;;;;;18.13;13.43;;;8.40;99.90;;;;;;6217821;23;20473;-89
2021/12/14 03:30:31;;;;;;;18.00;13.20;;;8.40;99.90;;;;;;6217015;23;20603;-87
2021/12/14 03:33:05;;;;;;;16.10;13.13;;;8.50;99.90;;;;;;6217951;23;20175;-84
2021/12/14 03:35:40;;;;;;;14.90;12.17;;;8.40;99.90;;;;;;6217547;23;20166;-86
2021/12/14 03:38:10;;;;;;;16.27;12.43;;;8.40;99.90;;;;;;6217552;23;20194;-88
2021/12/14 03:40:39;;;;;;;15.47;12.97;;;8.50;99.90;;;;;;6217306;23;20177;-91
2021/12/14 03:43:13;;;;;;;16.67;12.60;;;8.50;99.90;;;;;;6217797;23;20217;-90
2021/12/14 03:45:43;;;;;;;16.63;12.40;;;8.60;99.90;;;;;;6216789;23;20179;-90
2021/12/14 03:48:28;;;;;;;16.33;12.40;;;8.40;99.90;;;;;;6217477;23;20166;-85
2021/12/14 03:51:02;;;;;;;14.57;12.30;;;8.30;99.90;;;;;;6217109;23;20178;-89
2021/12/14 03:53:30;;;;;;;13.90;11.77;;;8.40;99.90;;;;;;6217103;23;20175;-87
2021/12/14 03:56:08;;;;;;;13.53;11.80;;;8.40;99.90;;;;;;6216955;23;20174;-88
2021/12/14 03:58:40;;;;;;;13.57;12.03;;;8.30;99.90;;;;;;6216917;23;20201;-87
2021/12/14 04:01:12;;;;;;;14.03;12.43;;;8.20;99.90;;;;;;6216606;23;20173;-91
2021/12/14 04:03:48;;;;;;;16.33;12.63;;;8.30;99.90;;;;;;6217080;23;20167;-90
2021/12/14 04:06:21;;;;;;;15.70;12.27;;;8.30;99.90;;;;;;6217019;23;20166;-90
2021/12/14 04:08:51;;;;;;;15.80;12.03;;;8.30;99.90;;;;;;6217547;23;20222;-88
2021/12/14 04:11:22;;;;;;;17.97;11.97;;;8.40;99.90;;;;;;6217252;23;20518;-88
2021/12/14 04:13:53;;;;;;;14.17;12.63;;;8.50;99.90;;;;;;6216589;23;20201;-87
2021/12/14 04:16:24;;;;;;;15.53;12.23;;;8.50;99.90;;;;;;6216971;23;20170;-92
2021/12/14 04:18:51;;;;;;;16.27;12.97;;;8.50;99.90;;;;;;6216709;23;20524;-86
2021/12/14 04:21:20;;;;;;;18.00;12.73;;;8.50;99.90;;;;;;6216624;23;20166;-86
2021/12/14 04:23:53;;;;;;;16.30;12.67;;;8.40;99.90;;;;;;6216902;23;20218;-88
2021/12/14 04:26:27;;;;;;;16.93;13.63;;;8.40;99.90;;;;;;6217324;23;20193;-84
2021/12/14 04:29:00;;;;;;;16.63;13.07;;;8.30;99.90;;;;;;6216450;23;20166;-88
2021/12/14 04:31:35;;;;;;;20.17;13.97;;;8.40;99.90;;;;;;6215903;23;20577;-89
2021/12/14 04:34:04;;;;;;;19.13;14.00;;;8.60;99.90;;;;;;6216450;23;20162;-86
2021/12/14 04:36:31;;;;;;;19.77;14.73;;;8.40;99.90;;;;;;6216717;23;20163;-88
2021/12/14 04:39:04;;;;;;;19.63;14.23;;;8.40;99.90;;;;;;6216442;23;20197;-89
2021/12/14 04:52:53;;;;;;;20.98;16.55;;;8.40;99.90;;;;;;6216129;23;20394;-87
2021/12/14 04:55:26;;;;;;;22.33;15.80;;;8.40;99.90;;;;;;6215779;23;20174;-85
2021/12/14 04:57:56;;;;;;;23.27;15.00;;;8.30;99.90;;;;;;6215685;23;20182;-88
2021/12/14 05:00:29;;;;;;;24.17;16.40;;;8.40;99.90;;;;;;6216044;23;20641;-87
2021/12/14 05:03:02;;;;;;;22.17;16.30;;;8.50;99.90;;;;;;6215920;23;20177;-88
2021/12/14 05:05:39;;;;;;;22.00;15.60;;;8.40;99.90;;;;;;6215650;23;20163;-87
2021/12/14 05:11:01;;;;;;;25.00;17.40;;;8.50;99.90;;;;;;6167019;23;20193;-87
2021/12/14 05:13:33;;;;;;;23.20;16.33;;;8.70;99.90;;;;;;6215770;23;20194;-90
2021/12/14 05:16:00;;;;;;;23.07;17.37;;;8.60;99.90;;;;;;6216671;23;20175;-90
2021/12/14 05:18:31;;;;;;;23.20;16.30;;;8.60;99.90;;;;;;6216076;23;20193;-83
2021/12/14 05:21:02;;;;;;;28.80;17.50;;;8.70;99.90;;;;;;6216472;23;20222;-92
2021/12/14 05:23:36;;;;;;;26.40;17.93;;;8.70;99.90;;;;;;6216124;23;20265;-87
2021/12/14 05:26:09;;;;;;;24.83;18.27;;;8.60;99.90;;;;;;6215926;23;20653;-90
2021/12/14 05:28:43;;;;;;;27.60;18.43;;;8.60;99.90;;;;;;6216130;23;20230;-89
2021/12/14 05:31:14;;;;;;;26.53;18.73;;;8.70;99.90;;;;;;6216140;23;20163;-88
2021/12/14 05:33:44;;;;;;;29.67;20.00;;;8.50;99.90;;;;;;6216213;23;20170;-88
2021/12/14 05:36:15;;;;;;;28.00;18.03;;;8.50;99.90;;;;;;6216420;23;20263;-86
2021/12/14 05:38:53;;;;;;;56.30;25.67;;;8.50;99.90;;;;;;6216700;23;20289;-82
2021/12/14 05:44:15;;;;;;;28.17;18.50;;;8.70;99.90;;;;;;6216832;23;20193;-85
2021/12/14 05:46:56;;;;;;;26.27;18.97;;;8.50;99.90;;;;;;6216750;23;20163;-84
2021/12/14 05:49:28;;;;;;;27.50;18.97;;;8.40;99.90;;;;;;6215167;23;20170;-84
2021/12/14 05:52:01;;;;;;;30.67;18.87;;;8.40;99.90;;;;;;6216551;23;20163;-84
2021/12/14 05:54:35;;;;;;;33.03;20.23;;;8.50;99.90;;;;;;6216635;23;20512;-86
2021/12/14 05:57:07;;;;;;;57.30;27.80;;;8.50;99.90;;;;;;6215250;23;20505;-87
2021/12/14 05:59:41;;;;;;;37.90;22.80;;;8.50;99.90;;;;;;6216738;23;20209;-87
2021/12/14 06:02:09;;;;;;;32.83;21.23;;;8.70;99.90;;;;;;6215960;23;20643;-87
2021/12/14 06:04:39;;;;;;;30.77;19.57;;;8.70;99.90;;;;;;6216291;23;20183;-86
2021/12/14 06:07:07;;;;;;;33.08;21.20;;;8.60;99.90;;;;;;6214271;23;20395;-85
2021/12/14 06:09:40;;;;;;;33.27;21.50;;;8.60;99.90;;;;;;6215278;23;20204;-87
2021/12/14 06:12:13;;;;;;;32.43;20.37;;;8.60;99.90;;;;;;6216478;23;20249;-89
2021/12/14 06:14:52;;;;;;;31.07;21.30;;;8.50;99.90;;;;;;6215649;23;20174;-87
2021/12/14 06:17:23;;;;;;;33.30;21.27;;;8.40;99.90;;;;;;6216690;23;20175;-84
2021/12/14 06:19:54;;;;;;;36.47;22.77;;;8.40;99.90;;;;;;6216318;23;20398;-85
2021/12/14 06:22:25;;;;;;;35.37;22.43;;;8.40;99.90;;;;;;6215493;23;20187;-83
2021/12/14 06:24:55;;;;;;;37.13;22.50;;;8.40;99.90;;;;;;6215483;23;20167;-85
2021/12/14 06:27:26;;;;;;;37.23;22.70;;;8.20;99.90;;;;;;6217254;23;20173;-85
2021/12/14 06:30:03;;;;;;;38.00;23.87;;;8.20;99.90;;;;;;6215952;23;20633;-83
2021/12/14 06:32:35;;;;;;;39.30;24.43;;;8.30;99.90;;;;;;6215671;23;20166;-82
2021/12/14 06:35:07;;;;;;;39.50;24.37;;;8.20;99.90;;;;;;6215091;23;20233;-85
2021/12/14 06:38:22;;;;;;;42.00;24.73;;;8.30;99.90;;;;;;6216132;23;20182;-85
2021/12/14 06:40:54;;;;;;;43.27;24.73;;;8.30;99.90;;;;;;6215537;23;20229;-85
2021/12/14 06:43:24;;;;;;;42.63;25.13;;;8.30;99.90;;;;;;6214728;23;20174;-83
2021/12/14 06:45:57;;;;;;;45.73;27.20;;;8.30;99.90;;;;;;6215355;23;20182;-87
2021/12/14 06:48:29;;;;;;;49.70;27.33;;;8.40;99.90;;;;;;6214389;23;20248;-87
2021/12/14 06:51:00;;;;;;;43.27;25.87;;;8.40;99.90;;;;;;6215594;23;20203;-85
2021/12/14 06:53:28;;;;;;;43.37;26.10;;;8.50;99.90;;;;;;6215829;23;20164;-84
2021/12/14 06:56:05;;;;;;;44.47;26.10;;;8.40;99.90;;;;;;6218198;23;20183;-84
2021/12/14 06:58:34;;;;;;;48.10;27.30;;;8.40;99.90;;;;;;6218001;23;20190;-88
2021/12/14 07:01:09;;;;;;;49.90;27.20;;;8.40;99.90;;;;;;6217498;23;20221;-85
2021/12/14 07:03:44;;;;;;;49.03;27.73;;;8.50;99.90;;;;;;6218417;23;20166;-84
2021/12/14 07:06:14;;;;;;;51.50;26.03;;;8.60;99.90;;;;;;6219124;23;20170;-85
2021/12/14 07:08:43;;;;;;;46.57;26.97;;;8.60;99.90;;;;;;6222210;23;20313;-86
2021/12/14 07:11:18;;;;;;;46.03;27.37;;;8.60;99.90;;;;;;6219085;23;20166;-85
2021/12/14 07:13:47;;;;;;;48.53;27.60;;;8.60;99.90;;;;;;6218870;23;20198;-85
2021/12/14 07:16:26;;;;;;;50.50;27.87;;;8.50;99.90;;;;;;6218547;23;20171;-87
2021/12/14 07:18:57;;;;;;;49.60;28.27;;;8.40;99.90;;;;;;6215938;23;20194;-85
2021/12/14 07:21:41;;;;;;;47.57;28.70;;;8.30;99.90;;;;;;6217368;23;20170;-85
2021/12/14 07:24:44;;;;;;;49.63;28.20;;;8.40;99.90;;;;;;6216304;23;20175;-84
2021/12/14 07:27:28;;;;;;;52.47;29.33;;;8.50;99.90;;;;;;6180430;23;20489;-83
2021/12/14 07:30:12;;;;;;;52.97;28.87;;;8.40;99.90;;;;;;6217284;23;20170;-85
2021/12/14 07:32:45;;;;;;;47.47;27.40;;;8.40;99.90;;;;;;6217092;23;20163;-84
2021/12/14 07:35:26;;;;;;;53.37;29.57;;;8.60;99.90;;;;;;6217238;23;20246;-85
2021/12/14 07:37:58;;;;;;;49.80;29.63;;;8.60;99.90;;;;;;6217032;23;20254;-84
2021/12/14 07:40:33;;;;;;;55.87;31.23;;;8.60;99.90;;;;;;6216296;23;20190;-84
2021/12/14 07:43:13;;;;;;;55.10;28.40;;;8.70;99.90;;;;;;6216287;23;20167;-81
2021/12/14 07:45:41;;;;;;;52.03;31.90;;;8.80;99.90;;;;;;6215638;23;20166;-83
2021/12/14 07:48:11;;;;;;;49.77;27.37;;;8.80;99.90;;;;;;6215815;23;20511;-85
2021/12/14 07:50:42;;;;;;;52.80;28.90;;;8.70;99.90;;;;;;6215716;23;20189;-84
2021/12/14 07:53:10;;;;;;;51.57;29.67;;;8.70;99.90;;;;;;6215699;23;20175;-83
2021/12/14 07:55:40;;;;;;;52.07;29.77;;;8.70;99.90;;;;;;6215798;23;20179;-84
2021/12/14 07:58:08;;;;;;;50.57;29.63;;;8.80;99.90;;;;;;6216626;23;20182;-83
2021/12/14 08:00:42;;;;;;;51.17;29.37;;;8.70;99.90;;;;;;6216273;23;20225;-82
2021/12/14 08:03:11;;;;;;;50.67;29.80;;;8.70;99.90;;;;;;6216159;23;20181;-82
2021/12/14 08:05:44;;;;;;;56.33;30.43;;;8.70;99.90;;;;;;6216047;23;20175;-82
2021/12/14 08:08:18;;;;;;;50.40;28.83;;;8.80;99.90;;;;;;6216313;23;20257;-80
2021/12/14 08:10:49;;;;;;;52.33;30.80;;;8.70;99.90;;;;;;6222557;23;20182;-82
2021/12/14 08:13:20;;;;;;;50.97;30.57;;;8.80;99.90;;;;;;6223269;23;20199;-81
2021/12/14 08:15:53;;;;;;;50.97;29.40;;;8.80;99.90;;;;;;6222226;23;20177;-83
2021/12/14 08:18:26;;;;;;;56.17;30.90;;;8.90;99.90;;;;;;6222375;23;20202;-82
2021/12/14 08:20:58;;;;;;;50.63;30.23;;;9.00;99.90;;;;;;6217390;23;20201;-85
2021/12/14 08:23:29;;;;;;;47.93;28.37;;;8.90;99.90;;;;;;6216171;23;20265;-82
2021/12/14 08:26:01;;;;;;;54.77;31.10;;;9.00;99.90;;;;;;6216505;23;20188;-81
2021/12/14 08:28:29;;;;;;;55.07;31.20;;;8.90;99.90;;;;;;6216539;23;20163;-81
2021/12/14 08:31:00;;;;;;;52.80;30.13;;;9.00;99.90;;;;;;6216307;23;20167;-81
2021/12/14 08:33:31;;;;;;;53.27;30.50;;;9.00;99.90;;;;;;6215259;23;20521;-82
2021/12/14 08:36:01;;;;;;;50.03;30.30;;;9.10;99.90;;;;;;6214617;23;20170;-81
2021/12/14 08:38:31;;;;;;;52.77;29.20;;;9.00;99.90;;;;;;6215475;23;20501;-86
2021/12/14 08:41:11;;;;;;;50.07;29.00;;;8.80;99.90;;;;;;6215541;23;20177;-82
2021/12/14 08:43:46;;;;;;;55.87;29.90;;;8.80;99.90;;;;;;6214939;23;20606;-81
2021/12/14 08:46:17;;;;;;;59.20;30.73;;;8.80;99.90;;;;;;6215997;23;20163;-79
2021/12/14 08:48:50;;;;;;;53.20;28.37;;;8.90;99.90;;;;;;6215201;23;20493;-80
2021/12/14 08:51:23;;;;;;;52.67;29.67;;;9.00;99.90;;;;;;6215483;23;20471;-81
2021/12/14 08:53:55;;;;;;;48.97;28.33;;;9.10;99.90;;;;;;6213686;23;20185;-80
2021/12/14 08:56:22;;;;;;;53.07;29.27;;;9.20;99.90;;;;;;6216136;23;20218;-84
2021/12/14 08:58:50;;;;;;;50.23;28.17;;;9.00;99.90;;;;;;6215759;23;20166;-82
2021/12/14 09:01:21;;;;;;;49.40;28.37;;;8.90;99.90;;;;;;6215674;23;20167;-82
2021/12/14 09:03:56;;;;;;;51.90;28.80;;;8.80;99.90;;;;;;6215574;23;20167;-82
2021/12/14 09:06:29;;;;;;;48.40;27.40;;;8.90;99.90;;;;;;6217325;23;20245;-82
2021/12/14 09:09:00;;;;;;;49.63;27.57;;;9.00;99.90;;;;;;6215685;23;20178;-80
2021/12/14 09:11:30;;;;;;;52.93;29.57;;;9.00;99.90;;;;;;6215610;23;20170;-80
2021/12/14 09:13:58;;;;;;;48.00;28.33;;;8.90;99.90;;;;;;6215556;23;20348;-84
2021/12/14 09:16:28;;;;;;;54.10;35.43;;;9.00;99.90;;;;;;6207016;23;20504;-81
2021/12/14 09:19:02;;;;;;;50.07;30.33;;;9.00;99.90;;;;;;6210705;23;20174;-82
2021/12/14 09:21:34;;;;;;;47.40;27.53;;;9.20;99.90;;;;;;6215562;23;20178;-83
2021/12/14 09:24:06;;;;;;;49.33;28.67;;;9.20;99.90;;;;;;6215808;23;20186;-80
2021/12/14 09:26:39;;;;;;;44.53;27.13;;;9.20;99.90;;;;;;6217256;23;20179;-84
2021/12/14 09:29:11;;;;;;;47.47;27.07;;;9.20;99.90;;;;;;6219113;23;20166;-82
2021/12/14 09:31:40;;;;;;;44.43;26.03;;;9.40;99.90;;;;;;6224829;23;20175;-80
2021/12/14 09:34:12;;;;;;;52.53;27.23;;;9.50;99.90;;;;;;6222163;23;20178;-83
2021/12/14 09:36:40;;;;;;;48.53;26.83;;;9.20;99.90;;;;;;6222740;23;20166;-83
2021/12/14 09:39:13;;;;;;;46.70;26.13;;;9.30;99.90;;;;;;6221258;23;20178;-79
2021/12/14 09:41:44;;;;;;;49.47;26.47;;;9.30;99.90;;;;;;6222423;23;20169;-80
2021/12/14 09:44:14;;;;;;;49.50;26.87;;;9.30;99.90;;;;;;6218488;23;20678;-82
2021/12/14 09:46:42;;;;;;;41.53;26.03;;;9.20;99.90;;;;;;6218384;23;20159;-81
2021/12/14 09:49:12;;;;;;;44.00;26.93;;;9.40;99.90;;;;;;6220942;23;20249;-81
2021/12/14 09:51:45;;;;;;;49.40;26.80;;;9.40;99.90;;;;;;6219549;23;20177;-84
2021/12/14 09:54:15;;;;;;;47.00;25.70;;;9.40;99.90;;;;;;6217465;23;20162;-85
2021/12/14 09:56:51;;;;;;;47.93;26.73;;;9.30;99.90;;;;;;6218656;23;20245;-84
2021/12/14 09:59:20;;;;;;;44.10;27.03;;;9.30;99.90;;;;;;6220746;23;20166;-84
2021/12/14 10:01:51;;;;;;;50.70;26.83;;;9.30;99.90;;;;;;6221803;23;20166;-81
2021/12/14 10:04:23;;;;;;;45.80;26.97;;;9.10;99.90;;;;;;6219302;23;20704;-81
2021/12/14 10:06:52;;;;;;;43.73;26.17;;;9.10;99.90;;;;;;6219737;23;20267;-80
2021/12/14 10:09:23;;;;;;;50.53;26.70;;;9.10;99.90;;;;;;6218319;23;20175;-83
2021/12/14 10:12:15;;;;;;;44.43;25.80;;;9.10;99.90;;;;;;6218341;23;20205;-83
2021/12/14 10:14:47;;;;;;;45.13;27.17;;;9.20;99.90;;;;;;6218816;23;20175;-82
2021/12/14 10:17:16;;;;;;;43.10;25.73;;;9.20;99.90;;;;;;6217358;23;20162;-83
2021/12/14 10:19:47;;;;;;;53.60;33.92;;;9.10;99.90;;;;;;6217759;23;20404;-83
2021/12/14 10:22:21;;;;;;;50.47;28.97;;;9.20;99.90;;;;;;6213172;23;20170;-79
2021/12/14 10:24:48;;;;;;;43.70;25.90;;;9.10;99.90;;;;;;6215371;23;20170;-82
2021/12/14 10:27:19;;;;;;;46.50;27.30;;;9.30;99.90;;;;;;6214242;23;20175;-84
2021/12/14 10:29:46;;;;;;;49.30;26.70;;;9.30;99.90;;;;;;6220366;23;20166;-82
2021/12/14 10:32:17;;;;;;;47.17;27.10;;;9.30;99.90;;;;;;6220767;23;20169;-82
2021/12/14 10:34:52;;;;;;;47.23;26.80;;;9.40;99.90;;;;;;6221971;23;20163;-88
2021/12/14 10:37:25;;;;;;;44.37;26.63;;;9.50;99.90;;;;;;6218877;23;20196;-82
2021/12/14 10:43:06;;;;;;;48.37;27.40;;;9.60;99.90;;;;;;6223944;23;20494;-82
2021/12/14 10:45:35;;;;;;;44.37;26.10;;;9.60;99.90;;;;;;6220563;23;20178;-86
2021/12/14 10:48:02;;;;;;;42.07;26.53;;;9.50;99.90;;;;;;6224881;23;20167;-80
2021/12/14 10:50:36;;;;;;;44.40;27.43;;;9.50;99.90;;;;;;6218662;23;20162;-83
2021/12/14 10:53:06;;;;;;;48.80;26.70;;;9.60;99.90;;;;;;6219848;23;20176;-84
2021/12/14 10:55:38;;;;;;;53.47;31.13;;;9.70;99.90;;;;;;6217845;23;20657;-82
2021/12/14 10:58:10;;;;;;;46.83;27.70;;;9.80;99.90;;;;;;6217915;23;20566;-81
2021/12/14 11:00:43;;;;;;;43.73;27.00;;;9.80;99.90;;;;;;6218750;23;20199;-84
2021/12/14 11:03:13;;;;;;;42.57;26.20;;;9.90;99.90;;;;;;6218708;23;20171;-84
2021/12/14 11:05:47;;;;;;;41.27;26.07;;;9.80;99.90;;;;;;6218898;23;20167;-81
2021/12/14 11:08:34;;;;;;;44.07;25.97;;;9.70;99.90;;;;;;6219823;23;20174;-86
2021/12/14 11:11:02;;;;;;;42.33;26.83;;;9.80;99.90;;;;;;6217315;23;20167;-82
2021/12/14 11:13:42;;;;;;;39.27;25.47;;;9.90;99.90;;;;;;6217626;23;20213;-89
2021/12/14 11:16:19;;;;;;;38.83;25.13;;;10.00;99.90;;;;;;6217497;23;20173;-85
2021/12/14 11:18:48;;;;;;;43.67;25.93;;;9.90;99.90;;;;;;6217059;23;20606;-84
2021/12/14 11:21:22;;;;;;;38.50;25.07;;;9.80;99.90;;;;;;6216887;23;20599;-85
2021/12/14 11:23:55;;;;;;;47.90;26.77;;;9.80;99.90;;;;;;6216347;23;20186;-83
2021/12/14 11:26:27;;;;;;;46.50;26.50;;;9.70;99.90;;;;;;6216827;23;20591;-87
2021/12/14 11:28:59;;;;;;;44.77;26.87;;;9.90;99.90;;;;;;6217305;23;20170;-84
2021/12/14 11:31:29;;;;;;;45.77;25.80;;;10.00;99.90;;;;;;6217343;23;20186;-86
2021/12/14 11:34:02;;;;;;;45.57;26.23;;;10.00;99.90;;;;;;6217577;23;20242;-85
2021/12/14 11:36:37;;;;;;;42.00;26.00;;;9.90;99.90;;;;;;6217106;23;20187;-86
2021/12/14 11:39:10;;;;;;;41.90;24.97;;;9.90;99.90;;;;;;6220306;23;20595;-85
2021/12/14 11:41:45;;;;;;;42.67;25.50;;;10.00;99.90;;;;;;6217643;23;20194;-85
2021/12/14 11:44:21;;;;;;;41.40;26.60;;;9.90;99.90;;;;;;6217350;23;20174;-84
2021/12/14 11:47:04;;;;;;;40.53;25.87;;;9.70;99.90;;;;;;6215511;23;20205;-83
2021/12/14 11:49:48;;;;;;;41.43;25.37;;;9.80;99.90;;;;;;6217117;23;20278;-85
2021/12/14 11:52:36;;;;;;;42.27;25.83;;;9.90;99.90;;;;;;6220041;23;20637;-85
2021/12/14 11:55:17;;;;;;;41.43;25.53;;;10.00;99.90;;;;;;6219909;23;20190;-92
2021/12/14 11:57:45;;;;;;;43.20;26.63;;;10.10;99.90;;;;;;6220652;23;20166;-87
2021/12/14 12:00:20;;;;;;;38.37;25.30;;;10.30;99.90;;;;;;6223384;23;20233;-89
2021/12/14 12:02:47;;;;;;;39.63;25.43;;;10.30;99.90;;;;;;6221059;23;20170;-92
2021/12/14 12:05:16;;;;;;;39.93;26.20;;;10.30;99.90;;;;;;6222624;23;20186;-85
2021/12/14 12:10:41;;;;;;;38.47;24.40;;;10.10;99.90;;;;;;6220681;23;20170;-86
2021/12/14 12:13:11;;;;;;;39.17;24.27;;;10.20;99.90;;;;;;6213713;23;20197;-82
2021/12/14 12:15:40;;;;;;;43.77;26.27;;;10.30;99.90;;;;;;6216798;23;20166;-84
2021/12/14 12:18:10;;;;;;;42.70;25.90;;;10.40;99.90;;;;;;6216879;23;20167;-84
2021/12/14 12:20:39;;;;;;;38.43;24.93;;;10.40;99.90;;;;;;6216894;23;20191;-82
2021/12/14 12:23:10;;;;;;;40.77;24.33;;;10.40;99.90;;;;;;6217084;23;20258;-86
2021/12/14 12:25:40;;;;;;;34.97;23.17;;;10.40;99.90;;;;;;6217348;23;20174;-83
2021/12/14 12:28:10;;;;;;;37.33;24.20;;;10.50;99.90;;;;;;6216068;23;20175;-84
2021/12/14 12:30:47;;;;;;;37.13;25.80;;;10.70;99.90;;;;;;6216960;23;20171;-83
2021/12/14 12:33:23;;;;;;;39.03;24.80;;;10.70;99.90;;;;;;6216913;23;20417;-82
2021/12/14 12:36:04;;;;;;;37.33;24.27;;;10.70;99.90;;;;;;6217043;23;20175;-82
2021/12/14 12:38:44;;;;;;;37.60;23.10;;;10.80;99.90;;;;;;6216805;23;20183;-84
2021/12/14 12:41:25;;;;;;;36.90;24.20;;;10.90;99.90;;;;;;6216900;23;20199;-84
2021/12/14 12:44:02;;;;;;;35.40;23.57;;;10.70;99.90;;;;;;6219121;23;20649;-86
2021/12/14 12:46:35;;;;;;;37.37;24.47;;;10.60;99.90;;;;;;6219499;23;20167;-83
2021/12/14 12:49:11;;;;;;;36.70;23.70;;;10.70;99.90;;;;;;6219259;23;20175;-87
2021/12/14 12:52:16;;;;;;;41.00;24.47;;;10.80;99.90;;;;;;6220205;23;20198;-84
2021/12/14 12:54:58;;;;;;;33.87;22.60;;;10.90;99.90;;;;;;6219270;23;20188;-85
2021/12/14 12:57:41;;;;;;;38.37;24.07;;;10.80;99.90;;;;;;6218171;23;20278;-82
2021/12/14 13:00:37;;;;;;;37.83;24.00;;;10.80;99.90;;;;;;6222596;23;20176;-86
2021/12/14 13:03:08;;;;;;;35.37;23.53;;;10.70;99.90;;;;;;6220989;23;20194;-82
2021/12/14 13:05:39;;;;;;;32.07;23.33;;;10.80;99.90;;;;;;6220486;23;20229;-88
2021/12/14 13:08:14;;;;;;;37.53;26.90;;;10.90;99.90;;;;;;6219835;23;20391;-82
2021/12/14 13:10:47;;;;;;;35.20;24.87;;;10.70;99.90;;;;;;6215055;23;20703;-83
2021/12/14 13:13:23;;;;;;;33.40;23.00;;;10.80;99.90;;;;;;6217905;23;20632;-86
2021/12/14 13:16:14;;;;;;;35.30;24.93;;;10.80;99.90;;;;;;6224924;23;20171;-83
2021/12/14 13:19:00;;;;;;;33.83;23.37;;;10.80;99.90;;;;;;6221186;23;20167;-83
2021/12/14 13:21:39;;;;;;;37.37;23.97;;;10.70;99.90;;;;;;6221822;23;20722;-84
2021/12/14 13:24:13;;;;;;;38.40;25.00;;;10.70;99.90;;;;;;6222464;23;20182;-86
2021/12/14 13:26:50;;;;;;;35.70;23.97;;;10.50;99.90;;;;;;6226129;23;20179;-85
2021/12/14 13:29:35;;;;;;;37.47;24.33;;;10.40;99.90;;;;;;6225759;23;20191;-86
2021/12/14 13:32:08;;;;;;;43.27;25.63;;;10.40;99.90;;;;;;6224506;23;20178;-85